CEB4138 CYTZ-KISP
Flight info
| Callsign | CEB4138 |
|---|---|
| Flight time | N/A |
| Altitude | 31000 |
| Route | 1750 DEERY YOSUR KISP06 |
| Aircraft | A20N/L-SDE3GHIJ2J3J5M1RVWXYZ/C |
Departure
| Time | 2026-05-06 19:01 |
|---|---|
| Airport | Billy Bishop Toronto City Airport (CYTZ) |
Arrival
| Time | N/A |
|---|---|
| Airport | Long Island MacArthur Airport (KISP) |
| Time | Latitude | Longitude | Altitude | Speed | Heading |
|---|---|---|---|---|---|
| 2026-05-06 18:48 | 43.63070 | -79.39655 | 239 ft | 0 kts | 53° |
| 2026-05-06 18:54 | 43.63064 | -79.39666 | 239 ft | 3 kts | 53° |
| 2026-05-06 18:55 | 43.63048 | -79.39696 | 239 ft | 3 kts | 53° |
| 2026-05-06 18:55 | 43.63032 | -79.39725 | 239 ft | 3 kts | 53° |
| 2026-05-06 18:55 | 43.63019 | -79.39751 | 238 ft | 3 kts | 53° |
| 2026-05-06 18:55 | 43.63015 | -79.39758 | 238 ft | 0 kts | 53° |
| 2026-05-06 18:56 | 43.63017 | -79.39754 | 238 ft | 1 kts | 53° |
| 2026-05-06 18:56 | 43.63021 | -79.39743 | 238 ft | 0 kts | 85° |
| 2026-05-06 18:57 | 43.63011 | -79.39726 | 238 ft | 3 kts | 136° |
| 2026-05-06 18:57 | 43.62993 | -79.39732 | 238 ft | 4 kts | 226° |
| 2026-05-06 18:57 | 43.62974 | -79.39771 | 238 ft | 5 kts | 250° |
| 2026-05-06 18:57 | 43.62964 | -79.39830 | 238 ft | 7 kts | 258° |
| 2026-05-06 18:58 | 43.62950 | -79.39900 | 240 ft | 8 kts | 252° |
| 2026-05-06 18:58 | 43.62928 | -79.39993 | 240 ft | 12 kts | 251° |
| 2026-05-06 18:58 | 43.62958 | -79.40099 | 241 ft | 14 kts | 317° |
| 2026-05-06 18:58 | 43.62933 | -79.40203 | 242 ft | 14 kts | 221° |
| 2026-05-06 18:59 | 43.62856 | -79.40294 | 242 ft | 12 kts | 221° |
| 2026-05-06 18:59 | 43.62846 | -79.40306 | 241 ft | 1 kts | 221° |
| 2026-05-06 18:59 | 43.62835 | -79.40320 | 242 ft | 2 kts | 221° |
| 2026-05-06 18:59 | 43.62812 | -79.40331 | 242 ft | 4 kts | 180° |
| 2026-05-06 19:00 | 43.62779 | -79.40321 | 242 ft | 5 kts | 157° |
| 2026-05-06 19:00 | 43.62765 | -79.40293 | 242 ft | 5 kts | 109° |
| 2026-05-06 19:00 | 43.62786 | -79.40177 | 241 ft | 33 kts | 72° |
| 2026-05-06 19:00 | 43.62879 | -79.39798 | 238 ft | 91 kts | 72° |
| 2026-05-06 19:01 | 43.63262 | -79.38219 | 631 ft | 144 kts | 72° |
| 2026-05-06 19:01 | 43.63583 | -79.36911 | 1295 ft | 151 kts | 71° |
| 2026-05-06 19:01 | 43.63934 | -79.35535 | 2033 ft | 158 kts | 73° |
| 2026-05-06 19:01 | 43.63971 | -79.34030 | 2658 ft | 169 kts | 115° |
| 2026-05-06 19:02 | 43.63118 | -79.32907 | 3194 ft | 182 kts | 156° |
| 2026-05-06 19:02 | 43.61893 | -79.32203 | 3768 ft | 199 kts | 149° |
| 2026-05-06 19:02 | 43.60905 | -79.30726 | 4258 ft | 224 kts | 120° |
| 2026-05-06 19:02 | 43.60194 | -79.28752 | 4905 ft | 242 kts | 116° |
| 2026-05-06 19:03 | 43.59433 | -79.26594 | 5555 ft | 260 kts | 117° |
| 2026-05-06 19:03 | 43.58581 | -79.24366 | 6317 ft | 273 kts | 119° |
| 2026-05-06 19:03 | 43.57651 | -79.22073 | 7288 ft | 277 kts | 120° |
| 2026-05-06 19:03 | 43.56677 | -79.19762 | 8263 ft | 280 kts | 121° |
| 2026-05-06 19:04 | 43.55694 | -79.17481 | 9177 ft | 284 kts | 121° |
| 2026-05-06 19:04 | 43.54671 | -79.15143 | 10077 ft | 288 kts | 122° |
| 2026-05-06 19:04 | 43.53615 | -79.12749 | 10799 ft | 299 kts | 122° |
| 2026-05-06 19:04 | 43.52502 | -79.10240 | 11300 ft | 316 kts | 122° |
| 2026-05-06 19:05 | 43.51350 | -79.07655 | 12011 ft | 324 kts | 122° |
| 2026-05-06 19:05 | 43.50161 | -79.04992 | 12856 ft | 328 kts | 122° |
| 2026-05-06 19:05 | 43.48968 | -79.02324 | 13674 ft | 332 kts | 122° |
| 2026-05-06 19:05 | 43.47763 | -78.99633 | 14463 ft | 336 kts | 122° |
| 2026-05-06 19:06 | 43.46545 | -78.96918 | 15233 ft | 340 kts | 122° |
| 2026-05-06 19:06 | 43.45303 | -78.94151 | 15990 ft | 344 kts | 122° |
| 2026-05-06 19:06 | 43.44036 | -78.91331 | 16730 ft | 348 kts | 122° |
| 2026-05-06 19:06 | 43.42774 | -78.88527 | 17357 ft | 342 kts | 122° |
| 2026-05-06 19:07 | 43.41510 | -78.85720 | 17629 ft | 353 kts | 122° |
| 2026-05-06 19:07 | 43.40221 | -78.82860 | 18263 ft | 358 kts | 122° |
| 2026-05-06 19:07 | 43.38902 | -78.79938 | 18993 ft | 361 kts | 122° |
| 2026-05-06 19:07 | 43.37571 | -78.76989 | 19659 ft | 364 kts | 122° |
| 2026-05-06 19:08 | 43.36242 | -78.74051 | 20291 ft | 368 kts | 122° |
| 2026-05-06 19:08 | 43.34889 | -78.71062 | 20922 ft | 372 kts | 122° |
| 2026-05-06 19:08 | 43.33511 | -78.68018 | 21550 ft | 376 kts | 122° |
| 2026-05-06 19:08 | 43.32111 | -78.64932 | 21930 ft | 387 kts | 122° |
| 2026-05-06 19:09 | 43.30683 | -78.61787 | 22193 ft | 400 kts | 122° |
| 2026-05-06 19:09 | 43.29171 | -78.58463 | 22450 ft | 413 kts | 122° |
| 2026-05-06 19:09 | 43.27652 | -78.55125 | 22801 ft | 422 kts | 122° |
| 2026-05-06 19:09 | 43.26105 | -78.51729 | 23439 ft | 423 kts | 122° |
| 2026-05-06 19:10 | 43.24538 | -78.48291 | 24001 ft | 426 kts | 122° |
| 2026-05-06 19:10 | 43.22957 | -78.44830 | 24217 ft | 437 kts | 122° |
| 2026-05-06 19:10 | 43.21321 | -78.41250 | 24447 ft | 447 kts | 122° |
| 2026-05-06 19:10 | 43.19679 | -78.37663 | 24873 ft | 450 kts | 122° |
| 2026-05-06 19:11 | 43.18018 | -78.34038 | 25500 ft | 449 kts | 123° |
| 2026-05-06 19:11 | 43.16359 | -78.30424 | 26152 ft | 447 kts | 123° |
| 2026-05-06 19:11 | 43.14709 | -78.26831 | 26752 ft | 446 kts | 123° |
| 2026-05-06 19:11 | 43.13258 | -78.23677 | 27250 ft | 446 kts | 122° |
| 2026-05-06 19:12 | 43.11603 | -78.20084 | 27819 ft | 445 kts | 122° |
| 2026-05-06 19:12 | 43.09970 | -78.16541 | 28375 ft | 444 kts | 122° |
| 2026-05-06 19:13 | 43.08315 | -78.12955 | 28895 ft | 444 kts | 122° |
| 2026-05-06 19:13 | 43.06674 | -78.09405 | 29378 ft | 443 kts | 122° |
| 2026-05-06 19:13 | 43.05027 | -78.05846 | 29845 ft | 443 kts | 122° |
| 2026-05-06 19:13 | 43.03389 | -78.02305 | 30306 ft | 442 kts | 122° |
| 2026-05-06 19:14 | 43.01770 | -77.98811 | 30763 ft | 441 kts | 123° |
| 2026-05-06 19:14 | 43.00118 | -77.95254 | 30994 ft | 441 kts | 123° |
| 2026-05-06 19:14 | 42.98490 | -77.91753 | 31000 ft | 440 kts | 123° |
| 2026-05-06 19:15 | 42.95209 | -77.84714 | 31002 ft | 441 kts | 122° |
| 2026-05-06 19:15 | 42.91929 | -77.77684 | 31002 ft | 441 kts | 122° |
| 2026-05-06 19:16 | 42.88617 | -77.70604 | 31002 ft | 441 kts | 122° |
| 2026-05-06 19:16 | 42.85323 | -77.63578 | 31002 ft | 441 kts | 122° |
| 2026-05-06 19:17 | 42.82048 | -77.56612 | 31002 ft | 441 kts | 122° |